sensor_id;sensor_type;location;lat;lon;timestamp;P1;durP1;ratioP1;P2;durP2;ratioP2
65377;SDS011;51982;51.042;13.806;2022-10-16T00:02:16;13.20;;;8.88;;
65377;SDS011;51982;51.042;13.806;2022-10-16T00:04:41;12.73;;;8.98;;
65377;SDS011;51982;51.042;13.806;2022-10-16T00:07:07;12.23;;;8.60;;
65377;SDS011;51982;51.042;13.806;2022-10-16T00:09:32;13.38;;;8.88;;
65377;SDS011;51982;51.042;13.806;2022-10-16T00:11:57;11.60;;;8.73;;
65377;SDS011;51982;51.042;13.806;2022-10-16T00:14:22;11.88;;;8.40;;
65377;SDS011;51982;51.042;13.806;2022-10-16T00:16:48;14.27;;;9.55;;
65377;SDS011;51982;51.042;13.806;2022-10-16T00:19:13;11.93;;;8.77;;
65377;SDS011;51982;51.042;13.806;2022-10-16T00:21:38;12.27;;;8.77;;
65377;SDS011;51982;51.042;13.806;2022-10-16T00:24:06;12.10;;;9.43;;
65377;SDS011;51982;51.042;13.806;2022-10-16T00:26:34;12.18;;;8.68;;
65377;SDS011;51982;51.042;13.806;2022-10-16T00:29:00;11.13;;;8.60;;
65377;SDS011;51982;51.042;13.806;2022-10-16T00:31:25;13.32;;;8.75;;
65377;SDS011;51982;51.042;13.806;2022-10-16T00:33:51;14.70;;;9.20;;
65377;SDS011;51982;51.042;13.806;2022-10-16T00:36:18;12.57;;;8.38;;
65377;SDS011;51982;51.042;13.806;2022-10-16T00:38:45;14.55;;;8.85;;
65377;SDS011;51982;51.042;13.806;2022-10-16T00:41:13;13.73;;;8.77;;
65377;SDS011;51982;51.042;13.806;2022-10-16T00:43:44;11.73;;;8.32;;
65377;SDS011;51982;51.042;13.806;2022-10-16T00:46:22;12.30;;;8.45;;
65377;SDS011;51982;51.042;13.806;2022-10-16T00:51:17;11.45;;;8.25;;
65377;SDS011;51982;51.042;13.806;2022-10-16T00:53:46;15.93;;;8.80;;
65377;SDS011;51982;51.042;13.806;2022-10-16T00:56:11;13.57;;;8.45;;
65377;SDS011;51982;51.042;13.806;2022-10-16T00:58:36;11.68;;;8.30;;
65377;SDS011;51982;51.042;13.806;2022-10-16T01:01:02;10.50;;;8.30;;
65377;SDS011;51982;51.042;13.806;2022-10-16T01:03:29;11.95;;;8.02;;
65377;SDS011;51982;51.042;13.806;2022-10-16T01:06:04;11.43;;;8.32;;
65377;SDS011;51982;51.042;13.806;2022-10-16T01:08:57;12.25;;;7.75;;
65377;SDS011;51982;51.042;13.806;2022-10-16T01:14:15;10.88;;;8.38;;
65377;SDS011;51982;51.042;13.806;2022-10-16T01:17:10;9.05;;;7.53;;
65377;SDS011;51982;51.042;13.806;2022-10-16T01:23:07;12.43;;;7.40;;
65377;SDS011;51982;51.042;13.806;2022-10-16T01:31:11;10.70;;;8.10;;
65377;SDS011;51982;51.042;13.806;2022-10-16T01:33:43;9.45;;;7.47;;
65377;SDS011;51982;51.042;13.806;2022-10-16T01:36:16;11.55;;;8.05;;
65377;SDS011;51982;51.042;13.806;2022-10-16T01:38:49;9.98;;;7.97;;
65377;SDS011;51982;51.042;13.806;2022-10-16T01:41:30;9.90;;;8.00;;
65377;SDS011;51982;51.042;13.806;2022-10-16T01:44:03;11.57;;;8.75;;
65377;SDS011;51982;51.042;13.806;2022-10-16T01:46:42;11.38;;;8.38;;
65377;SDS011;51982;51.042;13.806;2022-10-16T01:49:10;10.63;;;8.50;;
65377;SDS011;51982;51.042;13.806;2022-10-16T01:51:37;11.38;;;8.75;;
65377;SDS011;51982;51.042;13.806;2022-10-16T01:54:03;10.30;;;8.77;;
65377;SDS011;51982;51.042;13.806;2022-10-16T01:56:31;11.13;;;8.80;;
65377;SDS011;51982;51.042;13.806;2022-10-16T01:59:09;11.55;;;9.45;;
65377;SDS011;51982;51.042;13.806;2022-10-16T02:01:39;15.15;;;9.57;;
65377;SDS011;51982;51.042;13.806;2022-10-16T02:04:15;12.35;;;9.95;;
65377;SDS011;51982;51.042;13.806;2022-10-16T02:06:43;11.80;;;9.65;;
65377;SDS011;51982;51.042;13.806;2022-10-16T02:09:08;11.80;;;9.23;;
65377;SDS011;51982;51.042;13.806;2022-10-16T02:11:34;13.73;;;9.65;;
65377;SDS011;51982;51.042;13.806;2022-10-16T02:14:06;14.27;;;10.32;;
65377;SDS011;51982;51.042;13.806;2022-10-16T02:16:37;12.85;;;9.90;;
65377;SDS011;51982;51.042;13.806;2022-10-16T02:19:04;12.82;;;10.00;;
65377;SDS011;51982;51.042;13.806;2022-10-16T02:21:33;12.07;;;9.48;;
65377;SDS011;51982;51.042;13.806;2022-10-16T02:24:08;13.93;;;10.02;;
65377;SDS011;51982;51.042;13.806;2022-10-16T02:29:12;15.40;;;9.93;;
65377;SDS011;51982;51.042;13.806;2022-10-16T02:31:41;13.27;;;9.52;;
65377;SDS011;51982;51.042;13.806;2022-10-16T02:34:12;13.90;;;10.02;;
65377;SDS011;51982;51.042;13.806;2022-10-16T02:36:39;12.43;;;9.80;;
65377;SDS011;51982;51.042;13.806;2022-10-16T02:39:06;12.07;;;9.05;;
65377;SDS011;51982;51.042;13.806;2022-10-16T02:41:33;11.82;;;9.50;;
65377;SDS011;51982;51.042;13.806;2022-10-16T02:43:59;12.18;;;8.95;;
65377;SDS011;51982;51.042;13.806;2022-10-16T02:46:24;13.75;;;8.77;;
65377;SDS011;51982;51.042;13.806;2022-10-16T02:48:49;10.93;;;8.73;;
65377;SDS011;51982;51.042;13.806;2022-10-16T02:51:14;12.50;;;8.63;;
65377;SDS011;51982;51.042;13.806;2022-10-16T02:53:40;12.45;;;8.23;;
65377;SDS011;51982;51.042;13.806;2022-10-16T02:56:05;10.73;;;8.48;;
65377;SDS011;51982;51.042;13.806;2022-10-16T02:58:30;11.77;;;8.13;;
65377;SDS011;51982;51.042;13.806;2022-10-16T03:00:56;10.65;;;8.02;;
65377;SDS011;51982;51.042;13.806;2022-10-16T03:03:21;10.00;;;7.80;;
65377;SDS011;51982;51.042;13.806;2022-10-16T03:05:46;11.15;;;7.93;;
65377;SDS011;51982;51.042;13.806;2022-10-16T03:08:12;12.38;;;7.57;;
65377;SDS011;51982;51.042;13.806;2022-10-16T03:10:38;8.90;;;7.25;;
65377;SDS011;51982;51.042;13.806;2022-10-16T03:13:03;12.98;;;7.82;;
65377;SDS011;51982;51.042;13.806;2022-10-16T03:15:28;9.73;;;7.80;;
65377;SDS011;51982;51.042;13.806;2022-10-16T03:17:54;11.70;;;7.35;;
65377;SDS011;51982;51.042;13.806;2022-10-16T03:20:20;10.15;;;8.05;;
65377;SDS011;51982;51.042;13.806;2022-10-16T03:22:45;10.65;;;8.05;;
65377;SDS011;51982;51.042;13.806;2022-10-16T03:25:10;10.45;;;8.05;;
65377;SDS011;51982;51.042;13.806;2022-10-16T03:27:36;13.40;;;7.47;;
65377;SDS011;51982;51.042;13.806;2022-10-16T03:30:01;11.27;;;8.00;;
65377;SDS011;51982;51.042;13.806;2022-10-16T03:32:27;10.50;;;8.10;;
65377;SDS011;51982;51.042;13.806;2022-10-16T03:34:53;9.95;;;8.20;;
65377;SDS011;51982;51.042;13.806;2022-10-16T03:37:19;10.88;;;8.30;;
65377;SDS011;51982;51.042;13.806;2022-10-16T03:39:44;11.63;;;8.43;;
65377;SDS011;51982;51.042;13.806;2022-10-16T03:42:10;10.82;;;7.78;;
65377;SDS011;51982;51.042;13.806;2022-10-16T03:44:35;12.75;;;8.77;;
65377;SDS011;51982;51.042;13.806;2022-10-16T03:47:00;13.55;;;8.68;;
65377;SDS011;51982;51.042;13.806;2022-10-16T03:49:25;12.18;;;8.93;;
65377;SDS011;51982;51.042;13.806;2022-10-16T03:51:51;11.80;;;9.13;;
65377;SDS011;51982;51.042;13.806;2022-10-16T03:54:16;13.85;;;8.20;;
65377;SDS011;51982;51.042;13.806;2022-10-16T03:56:41;12.73;;;8.35;;
65377;SDS011;51982;51.042;13.806;2022-10-16T03:59:07;11.25;;;8.15;;
65377;SDS011;51982;51.042;13.806;2022-10-16T04:01:32;10.25;;;8.50;;
65377;SDS011;51982;51.042;13.806;2022-10-16T04:03:57;11.90;;;8.93;;
65377;SDS011;51982;51.042;13.806;2022-10-16T04:06:22;10.05;;;8.30;;
65377;SDS011;51982;51.042;13.806;2022-10-16T04:08:48;10.57;;;8.15;;
65377;SDS011;51982;51.042;13.806;2022-10-16T04:11:13;10.93;;;9.02;;
65377;SDS011;51982;51.042;13.806;2022-10-16T04:13:38;10.38;;;8.48;;
65377;SDS011;51982;51.042;13.806;2022-10-16T04:16:03;11.70;;;9.23;;
65377;SDS011;51982;51.042;13.806;2022-10-16T04:18:29;10.82;;;8.80;;
65377;SDS011;51982;51.042;13.806;2022-10-16T04:20:54;9.65;;;8.27;;
65377;SDS011;51982;51.042;13.806;2022-10-16T04:23:20;12.27;;;8.57;;
65377;SDS011;51982;51.042;13.806;2022-10-16T04:25:45;10.00;;;8.65;;
65377;SDS011;51982;51.042;13.806;2022-10-16T04:28:11;10.30;;;8.45;;
65377;SDS011;51982;51.042;13.806;2022-10-16T04:30:37;10.43;;;8.77;;
65377;SDS011;51982;51.042;13.806;2022-10-16T04:33:03;12.23;;;8.50;;
65377;SDS011;51982;51.042;13.806;2022-10-16T04:35:29;14.05;;;8.75;;
65377;SDS011;51982;51.042;13.806;2022-10-16T04:37:56;11.95;;;8.95;;
65377;SDS011;51982;51.042;13.806;2022-10-16T04:40:22;12.85;;;8.85;;
65377;SDS011;51982;51.042;13.806;2022-10-16T04:42:48;11.43;;;9.13;;
65377;SDS011;51982;51.042;13.806;2022-10-16T04:45:13;13.20;;;9.35;;
65377;SDS011;51982;51.042;13.806;2022-10-16T04:47:38;13.05;;;9.63;;
65377;SDS011;51982;51.042;13.806;2022-10-16T04:50:03;14.82;;;10.20;;
65377;SDS011;51982;51.042;13.806;2022-10-16T04:52:29;16.73;;;9.98;;
65377;SDS011;51982;51.042;13.806;2022-10-16T04:54:56;12.45;;;9.48;;
65377;SDS011;51982;51.042;13.806;2022-10-16T04:57:25;13.57;;;10.10;;
65377;SDS011;51982;51.042;13.806;2022-10-16T04:59:51;11.07;;;9.15;;
65377;SDS011;51982;51.042;13.806;2022-10-16T05:02:17;14.45;;;8.70;;
65377;SDS011;51982;51.042;13.806;2022-10-16T05:04:42;11.82;;;8.68;;
65377;SDS011;51982;51.042;13.806;2022-10-16T05:07:07;12.57;;;9.18;;
65377;SDS011;51982;51.042;13.806;2022-10-16T05:09:32;11.23;;;8.52;;
65377;SDS011;51982;51.042;13.806;2022-10-16T05:11:58;13.32;;;7.63;;
65377;SDS011;51982;51.042;13.806;2022-10-16T05:14:23;11.52;;;8.65;;
65377;SDS011;51982;51.042;13.806;2022-10-16T05:16:51;10.70;;;7.88;;
65377;SDS011;51982;51.042;13.806;2022-10-16T05:19:16;9.55;;;7.72;;
65377;SDS011;51982;51.042;13.806;2022-10-16T05:21:42;10.20;;;7.80;;
65377;SDS011;51982;51.042;13.806;2022-10-16T05:24:07;8.50;;;7.45;;
65377;SDS011;51982;51.042;13.806;2022-10-16T05:26:34;12.10;;;8.00;;
65377;SDS011;51982;51.042;13.806;2022-10-16T05:28:59;11.60;;;8.10;;
65377;SDS011;51982;51.042;13.806;2022-10-16T05:31:24;10.40;;;7.93;;
65377;SDS011;51982;51.042;13.806;2022-10-16T05:33:50;9.32;;;8.13;;
65377;SDS011;51982;51.042;13.806;2022-10-16T05:36:15;8.98;;;7.70;;
65377;SDS011;51982;51.042;13.806;2022-10-16T05:38:40;9.48;;;7.28;;
65377;SDS011;51982;51.042;13.806;2022-10-16T05:41:06;11.80;;;7.93;;
65377;SDS011;51982;51.042;13.806;2022-10-16T05:43:31;10.15;;;7.75;;
65377;SDS011;51982;51.042;13.806;2022-10-16T05:45:57;9.10;;;7.28;;
65377;SDS011;51982;51.042;13.806;2022-10-16T05:48:24;9.32;;;8.13;;
65377;SDS011;51982;51.042;13.806;2022-10-16T05:50:59;12.48;;;7.80;;
65377;SDS011;51982;51.042;13.806;2022-10-16T05:53:27;9.52;;;8.20;;
65377;SDS011;51982;51.042;13.806;2022-10-16T05:55:54;8.85;;;7.93;;
65377;SDS011;51982;51.042;13.806;2022-10-16T05:58:21;10.93;;;8.15;;
65377;SDS011;51982;51.042;13.806;2022-10-16T06:03:42;12.73;;;8.98;;
65377;SDS011;51982;51.042;13.806;2022-10-16T06:06:11;13.30;;;11.00;;
65377;SDS011;51982;51.042;13.806;2022-10-16T06:08:39;12.52;;;9.80;;
65377;SDS011;51982;51.042;13.806;2022-10-16T06:11:09;12.80;;;10.57;;
65377;SDS011;51982;51.042;13.806;2022-10-16T06:13:36;13.30;;;10.13;;
65377;SDS011;51982;51.042;13.806;2022-10-16T06:16:02;13.18;;;10.38;;
65377;SDS011;51982;51.042;13.806;2022-10-16T06:18:28;20.77;;;9.80;;
65377;SDS011;51982;51.042;13.806;2022-10-16T06:20:54;13.98;;;10.48;;
65377;SDS011;51982;51.042;13.806;2022-10-16T06:23:21;13.43;;;11.00;;
65377;SDS011;51982;51.042;13.806;2022-10-16T06:25:47;12.68;;;10.50;;
65377;SDS011;51982;51.042;13.806;2022-10-16T06:28:15;14.43;;;10.57;;
65377;SDS011;51982;51.042;13.806;2022-10-16T06:30:40;12.50;;;10.25;;
65377;SDS011;51982;51.042;13.806;2022-10-16T06:33:08;15.13;;;10.70;;
65377;SDS011;51982;51.042;13.806;2022-10-16T06:35:34;13.77;;;10.93;;
65377;SDS011;51982;51.042;13.806;2022-10-16T06:37:59;17.50;;;11.57;;
65377;SDS011;51982;51.042;13.806;2022-10-16T06:40:24;13.95;;;10.52;;
65377;SDS011;51982;51.042;13.806;2022-10-16T06:42:49;16.27;;;11.57;;
65377;SDS011;51982;51.042;13.806;2022-10-16T06:45:16;14.07;;;11.90;;
65377;SDS011;51982;51.042;13.806;2022-10-16T06:47:42;15.10;;;11.30;;
65377;SDS011;51982;51.042;13.806;2022-10-16T06:50:07;14.95;;;11.57;;
65377;SDS011;51982;51.042;13.806;2022-10-16T06:52:33;13.75;;;11.05;;
65377;SDS011;51982;51.042;13.806;2022-10-16T06:54:59;14.88;;;10.77;;
65377;SDS011;51982;51.042;13.806;2022-10-16T06:57:24;14.05;;;11.15;;
65377;SDS011;51982;51.042;13.806;2022-10-16T06:59:49;12.07;;;10.02;;
65377;SDS011;51982;51.042;13.806;2022-10-16T07:02:15;12.48;;;10.65;;
65377;SDS011;51982;51.042;13.806;2022-10-16T07:04:40;10.60;;;9.43;;
65377;SDS011;51982;51.042;13.806;2022-10-16T07:07:05;16.52;;;9.85;;
65377;SDS011;51982;51.042;13.806;2022-10-16T07:09:30;10.60;;;9.30;;
65377;SDS011;51982;51.042;13.806;2022-10-16T07:11:56;12.57;;;9.07;;
65377;SDS011;51982;51.042;13.806;2022-10-16T07:14:21;11.20;;;9.45;;
65377;SDS011;51982;51.042;13.806;2022-10-16T07:16:47;10.50;;;8.70;;
65377;SDS011;51982;51.042;13.806;2022-10-16T07:19:12;13.13;;;9.63;;
65377;SDS011;51982;51.042;13.806;2022-10-16T07:21:40;12.35;;;9.32;;
65377;SDS011;51982;51.042;13.806;2022-10-16T07:24:07;10.77;;;8.70;;
65377;SDS011;51982;51.042;13.806;2022-10-16T07:26:37;12.80;;;8.55;;
65377;SDS011;51982;51.042;13.806;2022-10-16T07:29:04;10.57;;;9.00;;
65377;SDS011;51982;51.042;13.806;2022-10-16T07:31:30;10.57;;;8.65;;
65377;SDS011;51982;51.042;13.806;2022-10-16T07:33:57;11.68;;;8.13;;
65377;SDS011;51982;51.042;13.806;2022-10-16T07:36:23;9.55;;;8.40;;
65377;SDS011;51982;51.042;13.806;2022-10-16T07:38:48;8.65;;;7.75;;
65377;SDS011;51982;51.042;13.806;2022-10-16T07:41:15;9.93;;;8.70;;
65377;SDS011;51982;51.042;13.806;2022-10-16T07:43:45;9.75;;;7.88;;
65377;SDS011;51982;51.042;13.806;2022-10-16T07:46:12;11.13;;;8.32;;
65377;SDS011;51982;51.042;13.806;2022-10-16T07:48:38;10.38;;;8.60;;
65377;SDS011;51982;51.042;13.806;2022-10-16T07:51:04;10.27;;;8.50;;
65377;SDS011;51982;51.042;13.806;2022-10-16T07:53:31;10.50;;;7.75;;
65377;SDS011;51982;51.042;13.806;2022-10-16T07:56:00;13.05;;;9.05;;
65377;SDS011;51982;51.042;13.806;2022-10-16T07:58:27;8.40;;;7.50;;
65377;SDS011;51982;51.042;13.806;2022-10-16T08:00:53;10.55;;;8.70;;
65377;SDS011;51982;51.042;13.806;2022-10-16T08:03:18;11.07;;;8.45;;
65377;SDS011;51982;51.042;13.806;2022-10-16T08:05:43;10.35;;;8.05;;
65377;SDS011;51982;51.042;13.806;2022-10-16T08:08:12;10.88;;;8.55;;
65377;SDS011;51982;51.042;13.806;2022-10-16T08:10:38;11.82;;;8.80;;
65377;SDS011;51982;51.042;13.806;2022-10-16T08:13:03;18.83;;;9.60;;
65377;SDS011;51982;51.042;13.806;2022-10-16T08:15:29;10.48;;;7.95;;
65377;SDS011;51982;51.042;13.806;2022-10-16T08:18:04;13.13;;;7.60;;
65377;SDS011;51982;51.042;13.806;2022-10-16T08:20:30;8.30;;;6.97;;
65377;SDS011;51982;51.042;13.806;2022-10-16T08:22:57;8.65;;;6.70;;
65377;SDS011;51982;51.042;13.806;2022-10-16T08:25:22;7.55;;;6.75;;
65377;SDS011;51982;51.042;13.806;2022-10-16T08:27:48;12.57;;;6.55;;
65377;SDS011;51982;51.042;13.806;2022-10-16T08:30:14;6.80;;;6.00;;
65377;SDS011;51982;51.042;13.806;2022-10-16T08:32:40;8.68;;;6.50;;
65377;SDS011;51982;51.042;13.806;2022-10-16T08:35:07;8.20;;;5.68;;
65377;SDS011;51982;51.042;13.806;2022-10-16T08:37:34;7.35;;;5.68;;
65377;SDS011;51982;51.042;13.806;2022-10-16T08:39:59;7.47;;;4.97;;
65377;SDS011;51982;51.042;13.806;2022-10-16T08:42:34;8.20;;;5.32;;
65377;SDS011;51982;51.042;13.806;2022-10-16T08:50:48;6.63;;;5.65;;
65377;SDS011;51982;51.042;13.806;2022-10-16T08:53:17;8.05;;;5.90;;
65377;SDS011;51982;51.042;13.806;2022-10-16T08:55:50;10.27;;;6.60;;
65377;SDS011;51982;51.042;13.806;2022-10-16T08:58:17;7.35;;;6.55;;
65377;SDS011;51982;51.042;13.806;2022-10-16T09:00:48;7.07;;;6.20;;
65377;SDS011;51982;51.042;13.806;2022-10-16T09:06:29;8.68;;;6.53;;
65377;SDS011;51982;51.042;13.806;2022-10-16T09:17:38;10.52;;;7.43;;
65377;SDS011;51982;51.042;13.806;2022-10-16T09:23:19;12.27;;;7.93;;
65377;SDS011;51982;51.042;13.806;2022-10-16T09:25:50;9.25;;;7.82;;
65377;SDS011;51982;51.042;13.806;2022-10-16T09:28:17;10.32;;;8.00;;
65377;SDS011;51982;51.042;13.806;2022-10-16T09:30:43;9.13;;;7.70;;
65377;SDS011;51982;51.042;13.806;2022-10-16T09:33:09;8.80;;;7.90;;
65377;SDS011;51982;51.042;13.806;2022-10-16T09:35:47;8.43;;;7.38;;
65377;SDS011;51982;51.042;13.806;2022-10-16T09:38:25;8.82;;;7.47;;
65377;SDS011;51982;51.042;13.806;2022-10-16T09:41:14;9.15;;;8.15;;
65377;SDS011;51982;51.042;13.806;2022-10-16T09:43:46;9.73;;;7.88;;
65377;SDS011;51982;51.042;13.806;2022-10-16T09:46:24;9.23;;;8.07;;
65377;SDS011;51982;51.042;13.806;2022-10-16T09:48:56;9.13;;;7.80;;
65377;SDS011;51982;51.042;13.806;2022-10-16T09:51:44;8.77;;;7.57;;
65377;SDS011;51982;51.042;13.806;2022-10-16T09:54:15;9.75;;;8.73;;
65377;SDS011;51982;51.042;13.806;2022-10-16T09:56:42;8.85;;;7.93;;
65377;SDS011;51982;51.042;13.806;2022-10-16T09:59:14;9.30;;;8.30;;
65377;SDS011;51982;51.042;13.806;2022-10-16T10:01:45;12.38;;;8.07;;
65377;SDS011;51982;51.042;13.806;2022-10-16T10:04:15;9.10;;;7.80;;
65377;SDS011;51982;51.042;13.806;2022-10-16T10:09:15;13.45;;;8.27;;
65377;SDS011;51982;51.042;13.806;2022-10-16T10:14:24;10.95;;;8.27;;
65377;SDS011;51982;51.042;13.806;2022-10-16T10:19:41;8.85;;;6.78;;
65377;SDS011;51982;51.042;13.806;2022-10-16T10:22:16;6.10;;;4.90;;
65377;SDS011;51982;51.042;13.806;2022-10-16T10:24:43;6.05;;;4.63;;
65377;SDS011;51982;51.042;13.806;2022-10-16T10:27:11;6.93;;;4.78;;
65377;SDS011;51982;51.042;13.806;2022-10-16T10:29:45;4.65;;;4.15;;
65377;SDS011;51982;51.042;13.806;2022-10-16T10:38:43;9.77;;;3.65;;
65377;SDS011;51982;51.042;13.806;2022-10-16T10:43:35;3.33;;;2.83;;
65377;SDS011;51982;51.042;13.806;2022-10-16T10:46:04;3.50;;;3.20;;
65377;SDS011;51982;51.042;13.806;2022-10-16T10:51:10;4.53;;;3.90;;
65377;SDS011;51982;51.042;13.806;2022-10-16T10:53:49;5.53;;;4.22;;
65377;SDS011;51982;51.042;13.806;2022-10-16T10:56:34;5.93;;;3.80;;
65377;SDS011;51982;51.042;13.806;2022-10-16T11:02:01;4.35;;;3.00;;
65377;SDS011;51982;51.042;13.806;2022-10-16T11:05:25;3.83;;;3.00;;
65377;SDS011;51982;51.042;13.806;2022-10-16T11:07:35;3.78;;;3.13;;
65377;SDS011;51982;51.042;13.806;2022-10-16T11:12:38;1.88;;;1.50;;
65377;SDS011;51982;51.042;13.806;2022-10-16T11:22:53;1.83;;;0.90;;
65377;SDS011;51982;51.042;13.806;2022-10-16T11:25:22;2.58;;;0.70;;
65377;SDS011;51982;51.042;13.806;2022-10-16T11:30:40;0.77;;;0.68;;
65377;SDS011;51982;51.042;13.806;2022-10-16T11:36:03;1.77;;;0.70;;
65377;SDS011;51982;51.042;13.806;2022-10-16T11:38:56;2.50;;;0.57;;
65377;SDS011;51982;51.042;13.806;2022-10-16T11:41:32;0.80;;;0.60;;
65377;SDS011;51982;51.042;13.806;2022-10-16T11:46:42;1.75;;;0.73;;
65377;SDS011;51982;51.042;13.806;2022-10-16T11:49:18;0.30;;;0.30;;
65377;SDS011;51982;51.042;13.806;2022-10-16T11:51:51;2.53;;;0.40;;
65377;SDS011;51982;51.042;13.806;2022-10-16T11:57:11;0.98;;;0.60;;
65377;SDS011;51982;51.042;13.806;2022-10-16T12:02:21;0.60;;;0.60;;
65377;SDS011;51982;51.042;13.806;2022-10-16T12:04:52;2.28;;;0.60;;
65377;SDS011;51982;51.042;13.806;2022-10-16T12:07:32;0.50;;;0.50;;
65377;SDS011;51982;51.042;13.806;2022-10-16T12:10:24;1.15;;;0.50;;
65377;SDS011;51982;51.042;13.806;2022-10-16T12:12:51;0.60;;;0.52;;
65377;SDS011;51982;51.042;13.806;2022-10-16T12:15:30;2.45;;;0.85;;
65377;SDS011;51982;51.042;13.806;2022-10-16T12:17:57;0.50;;;0.50;;
65377;SDS011;51982;51.042;13.806;2022-10-16T12:20:41;0.43;;;0.43;;
65377;SDS011;51982;51.042;13.806;2022-10-16T12:23:16;2.55;;;0.60;;
65377;SDS011;51982;51.042;13.806;2022-10-16T12:25:53;0.55;;;0.52;;
65377;SDS011;51982;51.042;13.806;2022-10-16T12:28:21;0.60;;;0.50;;
65377;SDS011;51982;51.042;13.806;2022-10-16T12:31:03;1.50;;;0.60;;
65377;SDS011;51982;51.042;13.806;2022-10-16T12:33:32;0.53;;;0.53;;
65377;SDS011;51982;51.042;13.806;2022-10-16T12:35:59;0.75;;;0.40;;
65377;SDS011;51982;51.042;13.806;2022-10-16T12:38:46;1.70;;;0.60;;
65377;SDS011;51982;51.042;13.806;2022-10-16T12:41:23;1.60;;;0.50;;
65377;SDS011;51982;51.042;13.806;2022-10-16T12:44:05;0.40;;;0.40;;
65377;SDS011;51982;51.042;13.806;2022-10-16T12:46:46;0.40;;;0.40;;
65377;SDS011;51982;51.042;13.806;2022-10-16T12:51:41;0.60;;;0.40;;
65377;SDS011;51982;51.042;13.806;2022-10-16T12:57:12;1.02;;;0.60;;
65377;SDS011;51982;51.042;13.806;2022-10-16T13:00:11;0.73;;;0.50;;
65377;SDS011;51982;51.042;13.806;2022-10-16T13:22:56;2.85;;;0.70;;
65377;SDS011;51982;51.042;13.806;2022-10-16T13:28:14;0.60;;;0.60;;
65377;SDS011;51982;51.042;13.806;2022-10-16T13:30:43;1.20;;;0.80;;
65377;SDS011;51982;51.042;13.806;2022-10-16T13:33:16;1.40;;;1.00;;
65377;SDS011;51982;51.042;13.806;2022-10-16T13:35:49;2.00;;;0.52;;
65377;SDS011;51982;51.042;13.806;2022-10-16T13:38:18;0.85;;;0.60;;
65377;SDS011;51982;51.042;13.806;2022-10-16T13:40:55;0.70;;;0.47;;
65377;SDS011;51982;51.042;13.806;2022-10-16T13:43:23;0.70;;;0.60;;
65377;SDS011;51982;51.042;13.806;2022-10-16T13:45:53;1.00;;;0.80;;
65377;SDS011;51982;51.042;13.806;2022-10-16T13:48:26;0.75;;;0.68;;
65377;SDS011;51982;51.042;13.806;2022-10-16T13:51:02;0.68;;;0.63;;
65377;SDS011;51982;51.042;13.806;2022-10-16T13:56:05;9.00;;;1.83;;
65377;SDS011;51982;51.042;13.806;2022-10-16T13:58:34;4.47;;;1.23;;
65377;SDS011;51982;51.042;13.806;2022-10-16T14:03:32;2.50;;;0.80;;
65377;SDS011;51982;51.042;13.806;2022-10-16T14:06:01;2.15;;;0.93;;
65377;SDS011;51982;51.042;13.806;2022-10-16T14:08:28;2.17;;;1.00;;
65377;SDS011;51982;51.042;13.806;2022-10-16T14:10:55;2.08;;;1.00;;
65377;SDS011;51982;51.042;13.806;2022-10-16T14:13:31;2.33;;;1.10;;
65377;SDS011;51982;51.042;13.806;2022-10-16T14:16:03;1.95;;;1.02;;
65377;SDS011;51982;51.042;13.806;2022-10-16T14:18:32;2.30;;;1.30;;
65377;SDS011;51982;51.042;13.806;2022-10-16T14:21:05;1.30;;;0.90;;
65377;SDS011;51982;51.042;13.806;2022-10-16T14:23:36;3.80;;;1.90;;
65377;SDS011;51982;51.042;13.806;2022-10-16T14:26:06;3.53;;;1.70;;
65377;SDS011;51982;51.042;13.806;2022-10-16T14:28:35;2.83;;;1.30;;
65377;SDS011;51982;51.042;13.806;2022-10-16T14:33:44;4.63;;;1.40;;
65377;SDS011;51982;51.042;13.806;2022-10-16T14:38:35;2.38;;;1.40;;
65377;SDS011;51982;51.042;13.806;2022-10-16T14:41:02;1.83;;;1.38;;
65377;SDS011;51982;51.042;13.806;2022-10-16T14:43:33;4.18;;;1.30;;
65377;SDS011;51982;51.042;13.806;2022-10-16T14:46:01;2.60;;;1.40;;
65377;SDS011;51982;51.042;13.806;2022-10-16T14:48:28;3.22;;;1.60;;
65377;SDS011;51982;51.042;13.806;2022-10-16T14:50:54;2.65;;;1.23;;
65377;SDS011;51982;51.042;13.806;2022-10-16T14:53:20;2.47;;;1.30;;
65377;SDS011;51982;51.042;13.806;2022-10-16T14:55:46;2.30;;;0.98;;
65377;SDS011;51982;51.042;13.806;2022-10-16T14:58:15;2.95;;;1.20;;
65377;SDS011;51982;51.042;13.806;2022-10-16T15:00:42;1.90;;;1.20;;
65377;SDS011;51982;51.042;13.806;2022-10-16T15:03:08;3.05;;;1.30;;
65377;SDS011;51982;51.042;13.806;2022-10-16T15:05:33;2.80;;;1.27;;
65377;SDS011;51982;51.042;13.806;2022-10-16T15:07:58;2.50;;;1.65;;
65377;SDS011;51982;51.042;13.806;2022-10-16T15:10:24;9.32;;;2.40;;
65377;SDS011;51982;51.042;13.806;2022-10-16T15:12:52;4.05;;;2.38;;
65377;SDS011;51982;51.042;13.806;2022-10-16T15:17:50;5.38;;;2.15;;
65377;SDS011;51982;51.042;13.806;2022-10-16T15:20:21;4.72;;;2.03;;
65377;SDS011;51982;51.042;13.806;2022-10-16T15:22:47;2.72;;;1.63;;
65377;SDS011;51982;51.042;13.806;2022-10-16T15:25:30;2.70;;;1.70;;
65377;SDS011;51982;51.042;13.806;2022-10-16T15:28:02;2.42;;;1.90;;
65377;SDS011;51982;51.042;13.806;2022-10-16T15:30:28;4.90;;;1.60;;
65377;SDS011;51982;51.042;13.806;2022-10-16T15:32:53;2.85;;;1.50;;
65377;SDS011;51982;51.042;13.806;2022-10-16T15:35:19;5.15;;;2.20;;
65377;SDS011;51982;51.042;13.806;2022-10-16T15:37:45;5.00;;;1.90;;
65377;SDS011;51982;51.042;13.806;2022-10-16T15:40:11;3.30;;;1.80;;
65377;SDS011;51982;51.042;13.806;2022-10-16T15:42:36;2.40;;;1.30;;
65377;SDS011;51982;51.042;13.806;2022-10-16T15:45:02;4.85;;;2.00;;
65377;SDS011;51982;51.042;13.806;2022-10-16T15:47:28;4.28;;;1.85;;
65377;SDS011;51982;51.042;13.806;2022-10-16T15:49:54;2.20;;;1.63;;
65377;SDS011;51982;51.042;13.806;2022-10-16T15:52:19;3.67;;;1.90;;
65377;SDS011;51982;51.042;13.806;2022-10-16T15:54:44;3.53;;;1.75;;
65377;SDS011;51982;51.042;13.806;2022-10-16T15:57:09;2.67;;;1.70;;
65377;SDS011;51982;51.042;13.806;2022-10-16T15:59:35;5.57;;;1.98;;
65377;SDS011;51982;51.042;13.806;2022-10-16T16:02:00;2.90;;;2.40;;
65377;SDS011;51982;51.042;13.806;2022-10-16T16:04:25;4.10;;;2.40;;
65377;SDS011;51982;51.042;13.806;2022-10-16T16:06:51;4.75;;;2.20;;
65377;SDS011;51982;51.042;13.806;2022-10-16T16:09:16;3.47;;;2.25;;
65377;SDS011;51982;51.042;13.806;2022-10-16T16:11:41;6.13;;;2.13;;
65377;SDS011;51982;51.042;13.806;2022-10-16T16:14:07;4.13;;;2.72;;
65377;SDS011;51982;51.042;13.806;2022-10-16T16:16:36;4.28;;;3.00;;
65377;SDS011;51982;51.042;13.806;2022-10-16T16:19:03;7.28;;;4.32;;
65377;SDS011;51982;51.042;13.806;2022-10-16T16:21:32;11.57;;;6.72;;
65377;SDS011;51982;51.042;13.806;2022-10-16T16:23:58;17.42;;;12.10;;
65377;SDS011;51982;51.042;13.806;2022-10-16T16:26:24;16.33;;;10.90;;
65377;SDS011;51982;51.042;13.806;2022-10-16T16:28:52;13.48;;;7.80;;
65377;SDS011;51982;51.042;13.806;2022-10-16T16:31:18;12.82;;;7.78;;
65377;SDS011;51982;51.042;13.806;2022-10-16T16:33:44;12.85;;;8.38;;
65377;SDS011;51982;51.042;13.806;2022-10-16T16:36:09;13.10;;;6.85;;
65377;SDS011;51982;51.042;13.806;2022-10-16T16:38:35;10.23;;;6.93;;
65377;SDS011;51982;51.042;13.806;2022-10-16T16:41:20;11.50;;;8.05;;
65377;SDS011;51982;51.042;13.806;2022-10-16T16:43:47;10.25;;;7.70;;